METAR Data
IDs: Format: Raw Decoded Include TAF

Data at: 0116 UTC 28 Feb 2021

KGOO 280055Z AUTO VRB05KT 10SM 09/M06 A3009 RMK A01
KGOO 280030Z AUTO 30008KT 10SM 09/M06 A3009 RMK A01
KGOO 280010Z AUTO 30009KT 10SM 10/M06 A3009 RMK A01
KGOO 272355Z AUTO 29010KT 10SM 10/M06 A3009 RMK A01
KGOO 272335Z AUTO 29010KT 10SM 10/M06 A3009 RMK A01
KGOO 272315Z AUTO 27010KT 10SM 10/M06 A3009 RMK A01
KGOO 272255Z AUTO 29012KT 10SM 10/M07 A3009 RMK A01
KGOO 272235Z AUTO 30008KT 260V330 10SM 10/M07 A3008 RMK A01
KGOO 272215Z AUTO 28012KT 10SM 10/M07 A3008 RMK A01
KGOO 272150Z AUTO 30010KT 270V330 10SM 10/M07 A3008 RMK A01
KGOO 272135Z AUTO 29008G15KT 10SM 10/M07 A3008 RMK A01
KGOO 272115Z AUTO 33007G14KT 310V010 10SM 11/M13 A3008 RMK A01
KGOO 272055Z AUTO 33012KT 10SM 11/M13 A3009 RMK A01
KGOO 272035Z AUTO VRB06G13KT 10SM 10/M14 A3010 RMK A01
KGOO 272015Z AUTO 30007G12KT 270V350 10SM 09/M13 A3011 RMK A01
KGOO 271955Z AUTO 34008G15KT 310V020 10SM 09/M12 A3011 RMK A01
KGOO 271935Z AUTO 32006G12KT 10SM 09/M12 A3012 RMK A01
KGOO 271915Z AUTO 32008KT 10SM 08/M11 A3013 RMK A01
KGOO 271855Z AUTO 30006KT 10SM 08/M11 A3013 RMK A01
KGOO 271835Z AUTO 32008KT 10SM 08/M11 A3012 RMK A01
KGOO 271815Z AUTO 01007G13KT 330V050 10SM 07/M12 A3012 RMK A01
KGOO 271755Z AUTO VRB06KT 10SM 07/M11 A3012 RMK A01
KGOO 271735Z AUTO VRB05G13KT 10SM 07/M12 A3012 RMK A01
KGOO 271710Z AUTO 33007G13KT 10SM 07/M12 A3012 RMK A01
KGOO 271655Z AUTO VRB06G13KT 10SM 06/M13 A3012 RMK A01
KGOO 271635Z AUTO 05006G13KT 10SM 06/M13 A3011 RMK A01
KGOO 271615Z AUTO 03008G14KT 320V070 10SM 05/M13 A3010 RMK A01
KGOO 271555Z AUTO 02007G17KT 340V070 10SM 05/M13 A3010 RMK A01
KGOO 271535Z AUTO 02010G16KT 350V050 10SM 05/M12 A3009 RMK A01
KGOO 271515Z AUTO 03011G16KT 010V070 10SM 04/M11 A3009 RMK A01
KGOO 271455Z AUTO 03009G15KT 340V070 10SM 04/M11 A3008 RMK A01
KGOO 271435Z AUTO 01008G16KT 10SM 04/M12 A3008 RMK A01
KGOO 271415Z AUTO 03007G12KT 360V070 10SM 04/M12 A3007 RMK A01
KGOO 271355Z AUTO VRB06KT 10SM 04/M12 A3006 RMK A01
KGOO 271335Z AUTO 00000KT 10SM 04/M13 A3006 RMK A01
KGOO 271315Z AUTO VRB05KT 10SM 05/M13 A3005 RMK A01
KGOO 271255Z AUTO VRB06KT 10SM 05/M13 A3005 RMK A01
KGOO 271235Z AUTO 02004KT 10SM 04/M12 A3005 RMK A01
KGOO 271215Z AUTO 00000KT 10SM 02/M08 A3005 RMK A01
KGOO 271150Z AUTO 00000KT 10SM 03/M08 A3004 RMK A01
KGOO 271135Z AUTO 00000KT 10SM 04/M08 A3004 RMK A01
KGOO 271115Z AUTO 00000KT 10SM 04/M08 A3004 RMK A01
KGOO 271055Z AUTO 04003KT 10SM 03/M03 A3004 RMK A01
KGOO 271035Z AUTO 04004KT 10SM 03/M03 A3004 RMK A01
KGOO 271015Z AUTO 00000KT 10SM 03/M03 A3005 RMK A01
KGOO 270955Z AUTO 00000KT 10SM 04/M04 A3004 RMK A01
KGOO 270935Z AUTO 00000KT 10SM 05/M04 A3004 RMK A01
KGOO 270915Z AUTO 00000KT 10SM 05/M04 A3004 RMK A01
KGOO 270855Z AUTO 00000KT 10SM 05/M04 A3004 RMK A01
KGOO 270835Z AUTO 00000KT 10SM 05/M04 A3003 RMK A01
KGOO 270815Z AUTO 00000KT 10SM 05/M04 A3003 RMK A01
KGOO 270755Z AUTO 00000KT 10SM 05/M04 A3003 RMK A01
KGOO 270735Z AUTO 13003KT 10SM 06/M04 A3003 RMK A01
KGOO 270715Z AUTO 11004KT 10SM 06/M04 A3003 RMK A01
KGOO 270650Z AUTO 12003KT 10SM 06/M04 A3003 RMK A01
KGOO 270635Z AUTO 11004KT 10SM 06/M04 A3003 RMK A01
KGOO 270615Z AUTO 00000KT 10SM 06/M04 A3003 RMK A01
KGOO 270555Z AUTO 00000KT 10SM 06/M04 A3004 RMK A01
KGOO 270535Z AUTO 10005KT 10SM 06/M04 A3004 RMK A01
KGOO 270515Z AUTO 00000KT 10SM 06/M04 A3004 RMK A01
KGOO 270455Z AUTO 00000KT 10SM 06/M04 A3003 RMK A01
KGOO 270435Z AUTO 00000KT 10SM 06/M04 A3002 RMK A01
KGOO 270415Z AUTO 00000KT 10SM 06/M04 A3003 RMK A01
KGOO 270355Z AUTO 00000KT 10SM 07/M04 A3003 RMK A01
KGOO 270335Z AUTO 00000KT 10SM 07/M04 A3003 RMK A01
KGOO 270315Z AUTO 00000KT 10SM 07/M04 A3003 RMK A01
KGOO 270255Z AUTO 00000KT 10SM 08/M04 A3003 RMK A01
KGOO 270235Z AUTO 00000KT 10SM 08/M04 A3002 RMK A01
KGOO 270215Z AUTO 00000KT 10SM 09/M05 A3002 RMK A01
KGOO 270155Z AUTO 29004KT 10SM 09/M05 A3003 RMK A01
KGOO 270135Z AUTO 31005KT 10SM 09/M05 A3003 RMK A01
KGOO 270115Z AUTO 30007KT 10SM 10/M06 A3002 RMK A01
KGOO 270055Z AUTO 29007KT 10SM 11/M07 A3002 RMK A01
KGOO 270035Z AUTO 28008KT 10SM 11/M08 A3002 RMK A01
KGOO 270015Z AUTO 29008G13KT 10SM 11/M08 A3003 RMK A01
KGOO 262350Z AUTO 28009KT 10SM 12/M09 A3004 RMK A01
KGOO 262335Z AUTO 27009KT 10SM 12/M08 A3004 RMK A01
KGOO 262315Z AUTO 27008KT 10SM 12/M07 A3006 RMK A01
KGOO 262255Z AUTO 28007KT 230V300 10SM 12/M07 A3006 RMK A01
KGOO 262235Z AUTO 30008KT 10SM 12/M09 A3006 RMK A01
KGOO 262215Z AUTO 29008KT 10SM 12/M06 A3006 RMK A01
KGOO 262155Z AUTO VRB06KT 210V270 10SM 12/M08 A3006 RMK A01
KGOO 262135Z AUTO 26004G12KT 10SM 12/M08 A3007 RMK A01
KGOO 262115Z AUTO 26008KT 10SM 12/M08 A3009 RMK A01
KGOO 262055Z AUTO 27008KT 10SM 11/M07 A3009 RMK A01
KGOO 262035Z AUTO 27007G13KT 220V300 10SM 12/M06 A3010 RMK A01
KGOO 262015Z AUTO 27007G16KT 240V300 10SM 12/M06 A3012 RMK A01
KGOO 261955Z AUTO VRB03G11KT 10SM 12/M08 A3011 RMK A01
KGOO 261930Z AUTO VRB03G10KT 10SM 12/M09 A3013 RMK A01
KGOO 261915Z AUTO 28006KT 10SM 12/M08 A3013 RMK A01
KGOO 261855Z AUTO 28004KT 10SM 12/M11 A3014 RMK A01
KGOO 261835Z AUTO 31006KT 10SM 11/M13 A3014 RMK A01
KGOO 261810Z AUTO 30004KT 10SM 11/M10 A3014 RMK A01
KGOO 261755Z AUTO VRB05KT 10SM 11/M10 A3014 RMK A01
KGOO 261735Z AUTO VRB04KT 10SM 11/M10 A3015 RMK A01
KGOO 261715Z AUTO 00000KT 10SM 10/M11 A3016 RMK A01
KGOO 261655Z AUTO 00000KT 10SM 10/M07 A3015 RMK A01
KGOO 261635Z AUTO 00000KT 10SM 09/M07 A3016 RMK A01
KGOO 261615Z AUTO 00000KT 10SM 09/M07 A3015 RMK A01
KGOO 261555Z AUTO 00000KT 10SM 07/M08 A3015 RMK A01
KGOO 261535Z AUTO 00000KT 10SM 06/M08 A3014 RMK A01
KGOO 261515Z AUTO 00000KT 10SM 07/M09 A3014 RMK A01
KGOO 261455Z AUTO 00000KT 10SM 06/M09 A3014 RMK A01
KGOO 261435Z AUTO 00000KT 10SM 06/M09 A3014 RMK A01
KGOO 261415Z AUTO 00000KT 10SM 06/M09 A3014 RMK A01
KGOO 261355Z AUTO 00000KT 10SM 06/M09 A3014 RMK A01
KGOO 261335Z AUTO 00000KT 10SM 07/M09 A3014 RMK A01